createdAt,value
2023-04-23T00:00:52.956Z,10.67
2023-04-23T00:03:27.610Z,10.57
2023-04-23T00:06:00.744Z,10.57
2023-04-23T00:08:31.471Z,9.50
2023-04-23T00:11:01.763Z,9.77
2023-04-23T00:13:31.951Z,9.43
2023-04-23T00:16:06.030Z,8.67
2023-04-23T00:18:35.926Z,8.77
2023-04-23T00:21:05.897Z,8.70
2023-04-23T00:23:35.745Z,8.67
2023-04-23T00:26:05.592Z,8.07
2023-04-23T00:28:35.534Z,9.10
2023-04-23T00:31:08.007Z,8.87
2023-04-23T00:33:38.778Z,9.53
2023-04-23T00:36:09.530Z,9.63
2023-04-23T00:38:40.937Z,9.50
2023-04-23T00:41:11.168Z,9.33
2023-04-23T00:43:42.278Z,9.47
2023-04-23T00:46:18.555Z,9.83
2023-04-23T00:48:49.172Z,8.97
2023-04-23T00:51:27.586Z,9.20
2023-04-23T00:53:57.870Z,10.00
2023-04-23T00:56:30.597Z,9.90
2023-04-23T01:17:16.626Z,11.57
2023-04-23T01:19:46.700Z,13.07
2023-04-23T01:22:19.869Z,12.60
2023-04-23T01:24:50.464Z,12.83
2023-04-23T01:27:21.244Z,12.07
2023-04-23T01:29:51.278Z,13.30
2023-04-23T01:32:21.422Z,12.50
2023-04-23T01:34:52.097Z,12.33
2023-04-23T01:37:29.503Z,13.67
2023-04-23T01:56:05.583Z,16.33
2023-04-23T01:58:43.796Z,18.03
2023-04-23T02:01:13.627Z,15.07
2023-04-23T02:03:43.704Z,16.27
2023-04-23T02:06:14.066Z,15.63
2023-04-23T02:08:44.160Z,15.63
2023-04-23T02:11:16.620Z,14.93
2023-04-23T02:13:46.463Z,18.53
2023-04-23T02:16:16.474Z,15.30
2023-04-23T02:18:46.464Z,17.37
2023-04-23T02:21:16.498Z,17.53
2023-04-23T02:23:49.135Z,17.00
2023-04-23T06:30:00.413Z,38.03
2023-04-23T06:32:31.318Z,36.20
2023-04-23T07:43:02.932Z,30.67
2023-04-23T07:45:33.654Z,28.70
2023-04-23T07:48:03.603Z,31.73
2023-04-23T07:50:33.555Z,30.70
2023-04-23T07:53:03.541Z,29.50
2023-04-23T07:55:33.689Z,30.43
2023-04-23T07:58:06.313Z,31.33
2023-04-23T08:00:36.196Z,31.80
2023-04-23T08:03:06.333Z,32.13
2023-04-23T08:05:37.589Z,30.80
2023-04-23T08:08:10.033Z,28.07
2023-04-23T08:10:39.846Z,28.43
2023-04-23T08:13:12.442Z,28.57
2023-04-23T08:15:42.320Z,28.37
2023-04-23T08:18:23.845Z,29.00
2023-04-23T08:20:54.252Z,26.67
2023-04-23T08:23:24.435Z,26.50
2023-04-23T08:25:54.515Z,26.92
2023-04-23T08:28:28.396Z,24.97
2023-04-23T08:30:58.371Z,26.33
2023-04-23T08:33:28.562Z,25.17
2023-04-23T08:35:58.433Z,25.00
2023-04-23T08:38:28.533Z,24.42
2023-04-23T08:41:01.052Z,24.48
2023-04-23T08:43:42.440Z,24.95
2023-04-23T08:46:16.298Z,23.48
2023-04-23T08:48:48.107Z,23.58
2023-04-23T08:51:23.857Z,21.35
2023-04-23T08:53:59.085Z,22.35
2023-04-23T08:56:30.792Z,21.10
2023-04-23T08:59:04.185Z,21.15
2023-04-23T09:01:42.766Z,21.02
2023-04-23T09:04:17.862Z,20.77
2023-04-23T09:06:47.696Z,18.85
2023-04-23T09:09:19.763Z,19.25
2023-04-23T09:11:49.665Z,18.73
2023-04-23T09:14:29.615Z,18.92
2023-04-23T09:16:59.576Z,18.52
2023-04-23T09:19:30.708Z,17.83
2023-04-23T09:22:02.298Z,17.38
2023-04-23T09:24:35.001Z,16.55
2023-04-23T09:27:04.881Z,17.63
2023-04-23T09:29:37.303Z,16.17
2023-04-23T09:32:11.182Z,16.80
2023-04-23T09:34:43.630Z,17.15
2023-04-23T09:37:16.293Z,15.80
2023-04-23T09:39:46.327Z,15.82
2023-04-23T09:42:18.716Z,15.00
2023-04-23T09:44:59.577Z,15.05
2023-04-23T09:47:32.874Z,15.35
2023-04-23T09:50:03.623Z,14.85
2023-04-23T09:52:35.073Z,13.93
2023-04-23T09:55:05.916Z,14.38
2023-04-23T09:57:40.545Z,13.88
2023-04-23T10:00:23.130Z,13.63
2023-04-23T10:02:55.145Z,13.70
2023-04-23T10:05:33.964Z,14.35
2023-04-23T10:08:16.616Z,13.35
2023-04-23T10:11:05.923Z,12.02
2023-04-23T10:13:41.059Z,12.30
2023-04-23T10:16:23.206Z,11.77
2023-04-23T10:31:32.286Z,10.13
2023-04-23T10:34:13.383Z,9.23
2023-04-23T10:36:48.451Z,9.60
2023-04-23T10:39:30.122Z,9.02
2023-04-23T11:24:19.065Z,5.20
2023-04-23T11:26:51.625Z,4.97
2023-04-23T11:29:34.551Z,4.32
2023-04-23T11:32:05.637Z,4.90
2023-04-23T11:34:38.141Z,4.72
2023-04-23T11:37:16.832Z,4.45
2023-04-23T11:39:56.886Z,4.00
2023-04-23T11:42:30.982Z,4.70
2023-04-23T11:45:20.892Z,3.80
2023-04-23T11:47:56.720Z,4.00
2023-04-23T11:50:41.304Z,3.40
2023-04-23T11:53:16.225Z,3.42
2023-04-23T11:55:55.129Z,3.40
2023-04-23T11:58:30.796Z,4.00
2023-04-23T12:01:02.838Z,3.25
2023-04-23T12:03:35.447Z,3.28
2023-04-23T12:06:05.989Z,2.80
2023-04-23T12:08:40.809Z,2.58
2023-04-23T12:11:17.316Z,2.90
2023-04-23T12:13:51.896Z,2.78
2023-04-23T12:16:38.145Z,2.67
2023-04-23T12:19:11.301Z,2.75
2023-04-23T12:21:54.759Z,2.30
2023-04-23T12:24:28.266Z,2.25
2023-04-23T12:27:03.139Z,2.28
2023-04-23T12:29:39.668Z,2.00
2023-04-23T13:10:14.920Z,1.38
2023-04-23T13:12:46.009Z,1.65
2023-04-23T13:15:16.187Z,1.60
2023-04-23T13:17:48.032Z,1.60
2023-04-23T13:20:18.003Z,1.50
2023-04-23T13:22:47.790Z,1.50
2023-04-23T13:25:20.428Z,1.60
2023-04-23T13:27:50.229Z,1.80
2023-04-23T13:30:20.167Z,1.27
2023-04-23T13:32:50.123Z,1.80
2023-04-23T13:35:20.153Z,1.55
2023-04-23T13:37:50.027Z,1.40
2023-04-23T13:40:22.602Z,1.52
2023-04-23T13:42:55.310Z,1.65
2023-04-23T13:45:25.133Z,1.58
2023-04-23T13:47:55.518Z,1.20
2023-04-23T13:50:25.459Z,1.67
2023-04-23T13:52:55.290Z,1.45
2023-04-23T13:55:27.865Z,1.73
2023-04-23T13:57:59.061Z,1.30
2023-04-23T14:00:31.299Z,1.30
2023-04-23T14:03:01.246Z,1.30
2023-04-23T14:05:31.156Z,1.20
2023-04-23T14:08:05.269Z,1.33
2023-04-23T14:10:38.279Z,1.40
2023-04-23T14:13:08.188Z,1.40
2023-04-23T14:15:38.308Z,1.25
2023-04-23T14:18:08.822Z,1.17
2023-04-23T14:20:38.658Z,1.40
2023-04-23T14:23:36.363Z,1.50
2023-04-23T14:26:15.648Z,1.63
2023-04-23T14:28:53.783Z,1.40
2023-04-23T14:31:32.608Z,1.30
2023-04-23T16:49:48.776Z,1.75
2023-04-23T16:52:33.014Z,1.10
2023-04-23T17:28:12.138Z,0.90
2023-04-23T17:30:52.577Z,1.10
2023-04-23T17:33:25.167Z,1.23
2023-04-23T17:44:58.002Z,1.75
2023-04-23T17:47:41.071Z,1.90
2023-04-23T17:50:12.386Z,1.55
2023-04-23T17:53:05.567Z,1.97
2023-04-23T17:55:37.796Z,2.10
2023-04-23T17:58:09.735Z,2.28
2023-04-23T18:00:44.337Z,1.93
2023-04-23T18:03:26.815Z,1.70
2023-04-23T18:05:59.609Z,1.80
2023-04-23T18:08:30.473Z,1.90
2023-04-23T18:19:10.148Z,1.60
2023-04-23T18:21:51.099Z,1.67
2023-04-23T18:24:25.396Z,1.73
2023-04-23T18:26:55.394Z,1.60
2023-04-23T18:30:05.903Z,1.57
2023-04-23T18:43:52.381Z,1.57
2023-04-23T18:46:30.868Z,1.60
2023-04-23T18:49:06.796Z,1.50
2023-04-23T18:51:45.969Z,1.30
2023-04-23T18:54:25.754Z,1.43
2023-04-23T18:56:56.269Z,1.30
2023-04-23T18:59:35.357Z,1.40
2023-04-23T19:02:14.619Z,1.30
2023-04-23T19:04:51.883Z,1.30
2023-04-23T19:07:23.002Z,1.33
2023-04-23T19:09:52.831Z,1.53
2023-04-23T19:12:26.890Z,1.43
2023-04-23T19:14:56.780Z,1.30
2023-04-23T19:17:29.500Z,1.80
2023-04-23T19:20:04.110Z,1.60
2023-04-23T19:22:35.472Z,1.40
2023-04-23T19:25:13.493Z,1.30
2023-04-23T19:27:46.032Z,1.60
2023-04-23T19:30:18.553Z,1.70
2023-04-23T19:32:52.380Z,1.80
2023-04-23T19:35:28.775Z,1.70
2023-04-23T19:38:00.036Z,1.80
2023-04-23T19:40:29.931Z,1.73
2023-04-23T19:42:59.736Z,1.77
2023-04-23T19:45:40.041Z,2.23
2023-04-23T19:48:21.950Z,2.07
2023-04-23T19:50:55.454Z,2.20
2023-04-23T19:53:25.835Z,2.30
2023-04-23T19:55:59.135Z,2.43
2023-04-23T19:58:32.339Z,1.97
2023-04-23T20:01:02.222Z,2.40
2023-04-23T20:03:34.912Z,2.23
2023-04-23T20:06:09.840Z,2.40
2023-04-23T20:09:04.739Z,2.40
2023-04-23T20:11:34.898Z,2.27
2023-04-23T20:14:04.837Z,2.73
2023-04-23T20:16:43.452Z,3.07
2023-04-23T20:19:22.137Z,2.53
2023-04-23T22:28:49.757Z,4.00
2023-04-23T22:31:20.105Z,4.23
2023-04-23T22:33:49.940Z,4.13
2023-04-23T22:36:25.329Z,4.03
